Weather at Warracknabeal Airport

Public forecast

Using degrees Celsius for public forecast. Weather courtesy of forecast.io.

Closest aviation weather report (METAR) to Warracknabeal Airport

Report is more than 6 hours old.

Closest report is Mount Gambier Airport, 116.0 nm (214.8 km) SW. Retrieved 2022/09/17 19:00 UTC (8 days ago):

YMTG 171900Z AUTO 30008KT 9999 // OVC013 OVC021 10/08 Q1006

Closest aviation forecast (TAF) to Warracknabeal Airport

Forecast is more than 12 hours old.

Closest forecast is Melbourne International Airport, 141.8 nm (262.6 km) SE. Retrieved 2022/09/17 18:00 UTC (8 days ago):

TAF YMML 171712Z 1718/1900 33012KT 9999 BKN030 FM180100 34015G25KT 9999 -SHRA FEW020 BKN030 FM180600 33010KT 9999 -SHRA BKN030 FM181200 28013KT 9999 -SHRA SCT020 BKN030 INTER 1803/1809 6000 SHRA BKN020